Time;durP1;ratioP1;P1;durP2;ratioP2;P2;SDS_P1;SDS_P2;PMS_P1;PMS_P2;Temp;Humidity;BMP_temperature;BMP_pressure;BME280_temperature;BME280_humidity;BME280_pressure;Samples;Min_cycle;Max_cycle;Signal;HPM_P1;HPM_P2
2022/03/28 00:02:09;;;;;;;;;;;3.70;97.30;;;;;;2602458;54;20538;31
2022/03/28 00:04:49;;;;;;;;;;;3.70;97.30;;;;;;2602446;54;19941;31
2022/03/28 00:07:33;;;;;;;;;;;3.70;97.60;;;;;;2719733;39;21538;31
2022/03/28 00:10:08;;;;;;;;;;;3.60;98.00;;;;;;2602771;54;20747;31
2022/03/28 00:12:50;;;;;;;;;;;3.70;97.50;;;;;;2602807;54;20669;31
2022/03/28 00:15:29;;;;;;;;;;;3.60;97.90;;;;;;2621262;47;19942;31
2022/03/28 00:18:17;;;;;;;;;;;3.60;97.40;;;;;;2602585;54;19961;31
2022/03/28 00:21:03;;;;;;;;;;;3.60;97.80;;;;;;2621672;47;20760;31
2022/03/28 00:23:54;;;;;;;;;;;3.50;98.80;;;;;;2702224;39;21583;31
2022/03/28 00:26:47;;;;;;;;;;;3.40;99.80;;;;;;2603683;54;20665;31
2022/03/28 00:45:12;;;;;;;;;;;3.10;99.90;;;;;;2603419;54;20657;31
2022/03/28 00:47:59;;;;;;;;;;;3.10;99.90;;;;;;2603182;54;19931;31
2022/03/28 00:50:47;;;;;;;;;;;3.00;99.90;;;;;;2621570;46;20863;31
2022/03/28 00:56:25;;;;;;;;;;;3.00;99.90;;;;;;2602641;54;19942;31
2022/03/28 00:59:18;;;;;;;;;;;6.20;99.90;;;;;;2603389;54;20666;31
2022/03/28 01:02:30;;;;;;;;;;;3.00;99.90;;;;;;2603384;54;19989;31
2022/03/28 01:05:26;;;;;;;;;;;3.00;99.90;;;;;;2622040;46;19997;31
2022/03/28 01:09:01;;;;;;;;;;;3.00;99.90;;;;;;2603243;54;19934;31
2022/03/28 01:11:51;;;;;;;;;;;2.90;99.90;;;;;;2603400;54;20982;31
2022/03/28 01:14:42;;;;;;;;;;;2.80;99.90;;;;;;2603304;54;19935;31
2022/03/28 01:20:32;;;;;;;;;;;2.70;99.90;;;;;;2603428;54;19962;31
2022/03/28 01:23:12;;;;;;;;;;;2.70;99.90;;;;;;2603004;54;19935;31
2022/03/28 01:26:02;;;;;;;;;;;2.80;99.90;;;;;;2621664;46;20016;31
2022/03/28 01:28:49;;;;;;;;;;;2.70;99.90;;;;;;2603627;54;19959;31
2022/03/28 01:32:07;;;;;;;;;;;2.70;99.90;;;;;;2603328;54;19935;31
2022/03/28 01:34:42;;;;;;;;;;;2.60;99.90;;;;;;2603327;54;19934;31
2022/03/28 01:37:22;;;;;;;;;;;2.80;99.90;;;;;;2621532;46;19941;31
2022/03/28 01:40:09;;;;;;;;;;;2.70;99.90;;;;;;2603507;54;20763;31
2022/03/28 01:42:49;;;;;;;;;;;2.60;99.90;;;;;;2622158;46;20765;31
2022/03/28 01:45:38;;;;;;;;;;;2.60;99.90;;;;;;2603323;54;19934;31
2022/03/28 01:48:27;;;;;;;;;;;2.50;99.90;;;;;;2603413;54;20762;31
2022/03/28 01:51:01;;;;;;;;;;;2.50;99.90;;;;;;2603288;54;19942;31
2022/03/28 01:53:35;;;;;;;;;;;2.50;99.90;;;;;;2621983;46;19949;31
2022/03/28 01:56:11;;;;;;;;;;;2.50;99.90;;;;;;2621598;46;20787;31
2022/03/28 01:58:50;;;;;;;;;;;2.50;99.90;;;;;;2603345;54;20822;31
2022/03/28 02:01:39;;;;;;;;;;;2.50;99.90;;;;;;2701696;39;20417;31
2022/03/28 02:04:19;;;;;;;;;;;2.50;99.90;;;;;;2602951;54;20009;31
2022/03/28 02:07:10;;;;;;;;;;;2.70;99.90;;;;;;2603026;54;20005;31
2022/03/28 02:09:52;;;;;;;;;;;2.30;99.90;;;;;;2603148;54;19962;31
2022/03/28 02:12:45;;;;;;;;;;;2.40;99.90;;;;;;2603326;54;21271;31
2022/03/28 02:18:10;;;;;;;;;;;2.40;99.90;;;;;;2602547;54;20122;31
2022/03/28 02:20:51;;;;;;;;;;;2.30;99.90;;;;;;2603383;54;20034;31
2022/03/28 02:23:35;;;;;;;;;;;2.30;99.90;;;;;;2621816;46;19957;31
2022/03/28 02:26:16;;;;;;;;;;;2.30;99.90;;;;;;2603350;54;19935;31
2022/03/28 02:28:55;;;;;;;;;;;2.30;99.90;;;;;;2602603;54;20001;31
2022/03/28 02:31:29;;;;;;;;;;;2.40;99.90;;;;;;2603110;54;19942;31
2022/03/28 02:34:09;;;;;;;;;;;3.50;99.90;;;;;;2602376;54;19949;31
2022/03/28 02:36:43;;;;;;;;;;;2.30;99.90;;;;;;2621598;46;19941;31
2022/03/28 02:39:21;;;;;;;;;;;2.20;99.90;;;;;;2603140;54;20692;31
2022/03/28 02:42:00;;;;;;;;;;;2.30;99.90;;;;;;2621725;46;19942;31
2022/03/28 02:44:38;;;;;;;;;;;2.20;99.90;;;;;;2621543;46;19990;31
2022/03/28 02:47:13;;;;;;;;;;;2.20;99.90;;;;;;2621773;46;20761;31
2022/03/28 02:49:51;;;;;;;;;;;2.10;99.90;;;;;;2621743;46;20783;31
2022/03/28 02:52:26;;;;;;;;;;;2.00;99.90;;;;;;2602319;54;20924;31
2022/03/28 02:55:00;;;;;;;;;;;2.00;99.90;;;;;;2621877;46;20699;31
2022/03/28 02:57:34;;;;;;;;;;;2.00;99.90;;;;;;2603239;54;19977;31
2022/03/28 03:00:14;;;;;;;;;;;2.00;99.90;;;;;;2603093;54;20690;31
2022/03/28 03:02:48;;;;;;;;;;;2.00;99.90;;;;;;2603245;54;19934;31
2022/03/28 03:05:29;;;;;;;;;;;1.90;99.90;;;;;;2602983;54;20710;31
2022/03/28 03:08:06;;;;;;;;;;;2.00;99.90;;;;;;2603130;54;20823;31
2022/03/28 03:10:44;;;;;;;;;;;1.90;99.90;;;;;;2603305;54;20733;31
2022/03/28 03:13:19;;;;;;;;;;;1.90;99.90;;;;;;2614946;46;20025;31
2022/03/28 03:15:54;;;;;;;;;;;1.90;99.90;;;;;;2602220;54;19942;31
2022/03/28 03:18:34;;;;;;;;;;;1.70;99.90;;;;;;2621658;46;20807;31
2022/03/28 03:21:17;;;;;;;;;;;1.70;99.90;;;;;;2603020;54;19934;31
2022/03/28 03:23:52;;;;;;;;;;;1.80;99.90;;;;;;2621322;46;19976;31
2022/03/28 03:26:45;;;;;;;;;;;1.70;99.90;;;;;;2615954;46;19934;31
2022/03/28 03:29:23;;;;;;;;;;;5.20;99.90;;;;;;2601847;54;20743;31
2022/03/28 03:32:00;;;;;;;;;;;1.70;99.90;;;;;;2603075;54;19934;31
2022/03/28 03:34:37;;;;;;;;;;;1.70;99.90;;;;;;2602710;54;19935;31
2022/03/28 03:37:19;;;;;;;;;;;1.60;99.90;;;;;;2603283;54;20043;31
2022/03/28 03:39:55;;;;;;;;;;;1.60;99.90;;;;;;2602949;54;20885;31
2022/03/28 03:42:31;;;;;;;;;;;1.70;99.90;;;;;;2602948;54;20775;31
2022/03/28 03:45:08;;;;;;;;;;;1.70;99.90;;;;;;2602837;54;20669;31
2022/03/28 03:47:42;;;;;;;;;;;1.70;99.90;;;;;;2719901;39;22401;31
2022/03/28 03:50:24;;;;;;;;;;;1.80;99.90;;;;;;2602119;54;19989;31
2022/03/28 03:53:16;;;;;;;;;;;1.70;99.90;;;;;;2603180;54;20745;31
2022/03/28 03:55:59;;;;;;;;;;;1.70;99.90;;;;;;2603100;54;19998;31
2022/03/28 03:58:39;;;;;;;;;;;1.70;99.90;;;;;;2610239;46;20017;31
2022/03/28 04:01:15;;;;;;;;;;;1.70;99.90;;;;;;2621529;47;19934;31
2022/03/28 04:03:55;;;;;;;;;;;1.60;99.90;;;;;;2602707;54;19938;31
2022/03/28 04:06:32;;;;;;;;;;;1.60;99.90;;;;;;2602762;54;19942;31
2022/03/28 04:12:01;;;;;;;;;;;1.60;99.90;;;;;;2602819;54;19934;31
2022/03/28 04:14:39;;;;;;;;;;;1.50;99.90;;;;;;2620973;47;20866;31
2022/03/28 04:17:20;;;;;;;;;;;1.50;99.90;;;;;;2602872;54;19935;31
2022/03/28 04:19:58;;;;;;;;;;;1.40;99.90;;;;;;2602778;54;19946;31
2022/03/28 04:22:39;;;;;;;;;;;1.50;99.90;;;;;;2621499;47;19935;31
2022/03/28 04:25:15;;;;;;;;;;;1.40;99.90;;;;;;2602850;54;19934;31
2022/03/28 04:27:55;;;;;;;;;;;1.40;99.90;;;;;;2621259;47;20764;31
2022/03/28 04:30:36;;;;;;;;;;;1.40;99.90;;;;;;2602856;54;19938;31
2022/03/28 04:33:13;;;;;;;;;;;1.40;99.90;;;;;;2615976;47;20680;31
2022/03/28 04:35:58;;;;;;;;;;;1.50;99.90;;;;;;2602897;54;19988;31
2022/03/28 04:38:41;;;;;;;;;;;1.50;99.90;;;;;;2621014;47;20693;31
2022/03/28 04:41:26;;;;;;;;;;;1.50;99.90;;;;;;2602142;54;19961;31
2022/03/28 04:44:04;;;;;;;;;;;1.50;99.90;;;;;;2602516;54;19977;31
2022/03/28 04:46:44;;;;;;;;;;;1.50;99.90;;;;;;2602473;54;19946;31
2022/03/28 04:49:24;;;;;;;;;;;1.60;99.90;;;;;;2602635;54;20763;31
2022/03/28 04:52:21;;;;;;;;;;;1.50;99.90;;;;;;2602635;54;20781;31
2022/03/28 04:55:07;;;;;;;;;;;1.50;99.90;;;;;;2620768;47;20796;31
2022/03/28 04:57:54;;;;;;;;;;;1.40;99.90;;;;;;2602708;54;19935;31
2022/03/28 05:00:30;;;;;;;;;;;1.40;99.90;;;;;;2621134;47;20761;31
2022/03/28 05:03:15;;;;;;;;;;;1.40;99.90;;;;;;2602505;54;20730;31
2022/03/28 05:06:02;;;;;;;;;;;1.50;99.90;;;;;;2621254;47;19938;31
2022/03/28 05:08:44;;;;;;;;;;;1.40;99.90;;;;;;2621972;46;19942;31
2022/03/28 05:11:33;;;;;;;;;;;2.10;99.90;;;;;;2603167;54;19934;31
2022/03/28 05:17:08;;;;;;;;;;;1.70;99.90;;;;;;2603397;54;19942;31
2022/03/28 05:19:43;;;;;;;;;;;1.70;99.90;;;;;;2603592;54;20676;31
2022/03/28 05:22:22;;;;;;;;;;;1.80;99.90;;;;;;2603459;54;19934;31
2022/03/28 05:24:58;;;;;;;;;;;1.70;99.90;;;;;;2603394;54;19942;31
2022/03/28 05:27:33;;;;;;;;;;;2.50;99.90;;;;;;2622093;46;19934;31
2022/03/28 05:30:09;;;;;;;;;;;1.80;99.90;;;;;;2621559;46;19942;31
2022/03/28 05:32:50;;;;;;;;;;;2.00;99.90;;;;;;2622084;46;19934;31
2022/03/28 05:35:26;;;;;;;;;;;2.00;99.90;;;;;;2603479;54;19940;31
2022/03/28 05:38:03;;;;;;;;;;;2.10;99.90;;;;;;2622105;46;19989;31
2022/03/28 05:40:41;;;;;;;;;;;2.20;99.90;;;;;;2621851;46;19934;31
2022/03/28 05:43:18;;;;;;;;;;;2.30;99.90;;;;;;2622005;46;20774;31
2022/03/28 05:45:54;;;;;;;;;;;2.50;99.90;;;;;;2622011;46;19957;31
2022/03/28 05:48:29;;;;;;;;;;;2.60;99.90;;;;;;2621720;46;19942;31
2022/03/28 05:51:07;;;;;;;;;;;2.80;99.90;;;;;;2621626;46;21087;31
2022/03/28 05:53:48;;;;;;;;;;;3.10;99.90;;;;;;2621919;46;19942;31
2022/03/28 05:56:25;;;;;;;;;;;3.50;99.90;;;;;;2603257;54;19941;31
2022/03/28 05:59:07;;;;;;;;;;;4.00;99.90;;;;;;2603255;54;19958;31
2022/03/28 06:01:44;;;;;;;;;;;4.60;99.90;;;;;;2603073;54;19941;31
2022/03/28 06:04:24;;;;;;;;;;;5.30;99.90;;;;;;2602364;54;19942;31
2022/03/28 06:07:00;;;;;;;;;;;6.00;99.90;;;;;;2603315;54;19942;31
2022/03/28 06:09:35;;;;;;;;;;;6.60;99.90;;;;;;2602328;54;19938;31
2022/03/28 06:12:13;;;;;;;;;;;7.30;99.90;;;;;;2603275;54;19942;31
2022/03/28 06:14:49;;;;;;;;;;;8.10;99.90;;;;;;2603179;54;20787;31
2022/03/28 06:17:27;;;;;;;;;;;8.50;99.90;;;;;;2621671;46;19938;31
2022/03/28 06:20:07;;;;;;;;;;;9.00;99.90;;;;;;2621507;46;20684;31
2022/03/28 06:22:44;;;;;;;;;;;9.50;99.90;;;;;;2621289;46;20751;31
2022/03/28 06:25:21;;;;;;;;;;;10.00;99.90;;;;;;2621516;46;19961;31
2022/03/28 06:28:09;;;;;;;;;;;10.50;99.90;;;;;;2603011;54;19941;31
2022/03/28 06:30:44;;;;;;;;;;;10.90;99.90;;;;;;2603029;54;19941;31
2022/03/28 06:33:24;;;;;;;;;;;11.10;99.90;;;;;;2603006;54;19935;31
2022/03/28 06:36:00;;;;;;;;;;;11.50;99.90;;;;;;2602330;54;19970;31
2022/03/28 06:38:36;;;;;;;;;;;11.90;99.90;;;;;;2621264;46;19989;31
2022/03/28 06:41:11;;;;;;;;;;;12.20;99.90;;;;;;2621498;46;19934;31
2022/03/28 06:43:53;;;;;;;;;;;12.50;99.90;;;;;;2621723;46;20013;31
2022/03/28 06:46:30;;;;;;;;;;;12.90;99.90;;;;;;2621647;46;20788;31
2022/03/28 06:49:07;;;;;;;;;;;13.20;99.90;;;;;;2621654;46;19934;31
2022/03/28 06:54:24;;;;;;;;;;;13.80;99.90;;;;;;2603192;54;19962;31
2022/03/28 06:57:03;;;;;;;;;;;14.00;99.90;;;;;;2621350;46;19977;31
2022/03/28 06:59:41;;;;;;;;;;;14.30;99.90;;;;;;2621871;46;20762;31
2022/03/28 07:02:21;;;;;;;;;;;14.60;99.90;;;;;;2621463;46;19938;31
2022/03/28 07:04:57;;;;;;;;;;;14.80;99.90;;;;;;2603156;54;19961;31
2022/03/28 07:07:37;;;;;;;;;;;15.20;99.90;;;;;;2621838;46;20010;31
2022/03/28 07:10:16;;;;;;;;;;;15.50;99.90;;;;;;2603224;54;19938;31
2022/03/28 07:12:55;;;;;;;;;;;15.90;99.50;;;;;;2603095;54;19935;31
2022/03/28 07:15:32;;;;;;;;;;;16.10;98.60;;;;;;2603058;54;20728;31
2022/03/28 07:18:08;;;;;;;;;;;16.20;98.10;;;;;;2621920;46;19997;31
2022/03/28 07:20:46;;;;;;;;;;;16.40;98.20;;;;;;2621382;46;19934;31
2022/03/28 07:23:22;;;;;;;;;;;16.70;98.00;;;;;;2603116;54;20788;31
2022/03/28 07:25:59;;;;;;;;;;;17.10;97.20;;;;;;2621761;46;19961;31
2022/03/28 07:28:39;;;;;;;;;;;17.40;96.60;;;;;;2719935;39;21568;31
2022/03/28 07:31:14;;;;;;;;;;;17.60;95.80;;;;;;2602849;54;19934;31
2022/03/28 07:33:52;;;;;;;;;;;17.90;95.80;;;;;;2602425;54;20680;31
2022/03/28 07:36:28;;;;;;;;;;;18.10;95.20;;;;;;2621573;46;19947;31
2022/03/28 07:39:03;;;;;;;;;;;18.30;94.80;;;;;;2602260;54;19942;31
2022/03/28 07:41:39;;;;;;;;;;;18.50;94.10;;;;;;2719951;39;21540;31
2022/03/28 07:44:18;;;;;;;;;;;18.70;94.30;;;;;;2621529;46;20014;31
2022/03/28 07:46:54;;;;;;;;;;;18.80;93.90;;;;;;2621604;46;19939;31
2022/03/28 07:49:30;;;;;;;;;;;19.10;93.90;;;;;;2621483;46;20733;31
2022/03/28 07:52:06;;;;;;;;;;;19.30;93.40;;;;;;2621482;46;19934;31
2022/03/28 07:54:43;;;;;;;;;;;19.50;93.00;;;;;;2621137;46;19939;31
2022/03/28 07:57:17;;;;;;;;;;;19.70;93.10;;;;;;2602908;54;20005;31
2022/03/28 07:59:55;;;;;;;;;;;20.00;92.20;;;;;;2621748;46;21459;31
2022/03/28 08:02:50;;;;;;;;;;;20.10;91.70;;;;;;2602801;54;19934;31
2022/03/28 08:05:26;;;;;;;;;;;20.00;91.50;;;;;;2603077;54;19960;31
2022/03/28 08:08:03;;;;;;;;;;;19.90;91.30;;;;;;2602908;54;19935;31
2022/03/28 08:10:40;;;;;;;;;;;19.90;91.40;;;;;;2602768;54;19989;31
2022/03/28 08:13:16;;;;;;;;;;;20.10;91.40;;;;;;2602446;54;20774;31
2022/03/28 08:15:56;;;;;;;;;;;20.30;91.10;;;;;;2602861;54;19939;31
2022/03/28 08:18:36;;;;;;;;;;;20.40;90.90;;;;;;2603022;54;20749;31
2022/03/28 08:21:12;;;;;;;;;;;20.40;91.00;;;;;;2602679;54;20675;31
2022/03/28 08:23:48;;;;;;;;;;;20.60;91.50;;;;;;2602946;54;20785;31
2022/03/28 08:26:25;;;;;;;;;;;20.70;90.80;;;;;;2602842;54;20742;31
2022/03/28 08:29:00;;;;;;;;;;;20.70;91.10;;;;;;2621476;47;20816;31
2022/03/28 08:31:35;;;;;;;;;;;20.90;91.10;;;;;;2603037;54;19965;31
2022/03/28 08:34:10;;;;;;;;;;;20.90;90.30;;;;;;2602779;54;19941;31
2022/03/28 08:36:48;;;;;;;;;;;21.00;90.10;;;;;;2602900;54;20728;31
2022/03/28 08:39:22;;;;;;;;;;;21.10;89.70;;;;;;2603077;54;19935;31
2022/03/28 08:42:05;;;;;;;;;;;21.10;88.80;;;;;;2603212;54;19946;31
2022/03/28 08:44:40;;;;;;;;;;;21.10;88.30;;;;;;2603714;54;19942;31
2022/03/28 08:47:19;;;;;;;;;;;21.00;88.10;;;;;;2618443;46;19950;31
2022/03/28 08:52:50;;;;;;;;;;;21.20;88.30;;;;;;2622014;46;20739;31
2022/03/28 08:55:24;;;;;;;;;;;21.50;88.80;;;;;;2773538;31;21598;31
2022/03/28 08:58:01;;;;;;;;;;;21.80;87.70;;;;;;2621939;46;19935;31
2022/03/28 09:00:38;;;;;;;;;;;22.00;85.90;;;;;;2603508;54;19935;31
2022/03/28 09:03:13;;;;;;;;;;;21.90;85.90;;;;;;2603192;54;19941;31
2022/03/28 09:05:50;;;;;;;;;;;21.90;85.90;;;;;;2622107;46;19934;31
2022/03/28 09:08:47;;;;;;;;;;;21.90;86.00;;;;;;2603802;54;20710;31
2022/03/28 09:11:29;;;;;;;;;;;21.90;85.60;;;;;;2602744;54;20749;31
2022/03/28 09:14:04;;;;;;;;;;;21.90;83.70;;;;;;2603478;54;19998;31
2022/03/28 09:16:46;;;;;;;;;;;21.80;84.50;;;;;;2603618;54;19935;31
2022/03/28 09:19:25;;;;;;;;;;;22.10;85.50;;;;;;2603356;54;19940;31
2022/03/28 09:22:05;;;;;;;;;;;22.10;83.00;;;;;;2603441;54;19935;31
2022/03/28 09:24:58;;;;;;;;;;;22.10;82.70;;;;;;2602725;54;20776;31
2022/03/28 09:27:44;;;;;;;;;;;22.20;83.20;;;;;;2603251;54;19934;31
2022/03/28 09:30:30;;;;;;;;;;;22.20;83.10;;;;;;2603422;54;19941;31
2022/03/28 09:33:10;;;;;;;;;;;22.30;83.50;;;;;;2621557;46;19946;31
2022/03/28 09:38:44;;;;;;;;;;;22.40;80.70;;;;;;2603472;54;20770;31
2022/03/28 09:41:21;;;;;;;;;;;22.40;81.10;;;;;;2621722;46;20544;31
2022/03/28 09:43:57;;;;;;;;;;;22.30;81.70;;;;;;2621822;46;19954;31
2022/03/28 09:46:37;;;;;;;;;;;22.20;80.60;;;;;;2603307;54;20017;31
2022/03/28 09:49:13;;;;;;;;;;;22.30;81.30;;;;;;2621783;46;19941;31
2022/03/28 09:51:49;;;;;;;;;;;22.30;80.40;;;;;;2603329;54;20025;31
2022/03/28 09:54:28;;;;;;;;;;;22.40;80.20;;;;;;2622026;46;19935;31
2022/03/28 09:57:10;;;;;;;;;;;22.30;81.20;;;;;;2603469;54;19935;31
2022/03/28 09:59:45;;;;;;;;;;;22.40;80.50;;;;;;2621758;46;19938;31
2022/03/28 10:02:24;;;;;;;;;;;22.40;79.90;;;;;;2621922;46;20733;31
2022/03/28 10:05:00;;;;;;;;;;;22.50;78.90;;;;;;2603414;54;19942;31
2022/03/28 10:07:35;;;;;;;;;;;22.50;78.20;;;;;;2621617;46;19941;31
2022/03/28 10:10:12;;;;;;;;;;;22.50;79.50;;;;;;2622034;46;20778;31
2022/03/28 10:12:47;;;;;;;;;;;22.50;78.80;;;;;;2602430;54;19947;31
2022/03/28 10:15:22;;;;;;;;;;;22.40;77.90;;;;;;2602615;54;19957;31
2022/03/28 10:17:59;;;;;;;;;;;22.50;77.50;;;;;;2602686;54;20765;31
2022/03/28 10:20:34;;;;;;;;;;;22.40;77.20;;;;;;2603287;54;19985;31
2022/03/28 10:23:16;;;;;;;;;;;22.40;76.30;;;;;;2621693;46;19942;31
2022/03/28 10:25:54;;;;;;;;;;;22.20;76.50;;;;;;2621839;46;19935;31
2022/03/28 10:28:28;;;;;;;;;;;22.30;77.20;;;;;;2772391;31;20480;31
2022/03/28 10:31:10;;;;;;;;;;;22.40;78.00;;;;;;2621691;46;19935;31
2022/03/28 10:34:09;;;;;;;;;;;22.50;76.40;;;;;;2603137;54;19941;31
2022/03/28 10:36:44;;;;;;;;;;;22.50;76.30;;;;;;2603393;54;19934;31
2022/03/28 10:39:21;;;;;;;;;;;22.40;76.00;;;;;;2621790;46;19939;31
2022/03/28 10:41:55;;;;;;;;;;;22.40;76.50;;;;;;2621843;46;20016;31
2022/03/28 10:44:42;;;;;;;;;;;22.30;76.80;;;;;;2603008;54;19934;31
2022/03/28 10:47:17;;;;;;;;;;;22.20;76.90;;;;;;2603223;54;20671;31
2022/03/28 10:49:55;;;;;;;;;;;22.30;76.20;;;;;;2621825;46;20024;31
2022/03/28 10:52:30;;;;;;;;;;;22.20;77.00;;;;;;2603091;54;19934;31
2022/03/28 10:55:14;;;;;;;;;;;22.30;77.10;;;;;;2701589;39;20546;31
2022/03/28 10:57:49;;;;;;;;;;;22.20;75.10;;;;;;2603204;54;19935;31
2022/03/28 11:00:27;;;;;;;;;;;22.20;76.20;;;;;;2621535;46;19934;31
2022/03/28 11:03:07;;;;;;;;;;;22.10;76.50;;;;;;2603110;54;19990;31
2022/03/28 11:06:02;;;;;;;;;;;22.30;76.20;;;;;;2620936;47;19946;31
2022/03/28 11:08:45;;;;;;;;;;;22.40;76.00;;;;;;2602846;54;19938;31
2022/03/28 11:11:31;;;;;;;;;;;22.40;76.70;;;;;;2602989;54;20013;31
2022/03/28 11:14:10;;;;;;;;;;;22.30;75.60;;;;;;2621710;46;20002;31
2022/03/28 11:16:59;;;;;;;;;;;22.30;76.20;;;;;;2603396;54;19938;31
2022/03/28 11:19:41;;;;;;;;;;;22.30;76.00;;;;;;2621546;46;19977;31
2022/03/28 11:22:21;;;;;;;;;;;22.40;75.50;;;;;;2603400;54;20005;31
2022/03/28 11:25:00;;;;;;;;;;;22.30;76.70;;;;;;2602950;54;20015;31
2022/03/28 11:27:38;;;;;;;;;;;22.20;75.50;;;;;;2603236;54;19938;31
2022/03/28 11:30:27;;;;;;;;;;;22.30;74.80;;;;;;2621501;46;20681;31
2022/03/28 11:33:03;;;;;;;;;;;22.20;75.80;;;;;;2621762;46;20767;31
2022/03/28 11:35:47;;;;;;;;;;;22.20;75.50;;;;;;2602894;54;20732;31
2022/03/28 11:38:26;;;;;;;;;;;22.20;75.40;;;;;;2621893;46;20681;31
2022/03/28 11:41:04;;;;;;;;;;;22.10;77.10;;;;;;2621184;46;19985;31
2022/03/28 11:43:42;;;;;;;;;;;22.00;74.20;;;;;;2602791;54;19941;31
2022/03/28 11:46:18;;;;;;;;;;;22.00;73.50;;;;;;2602975;54;20760;31
2022/03/28 11:48:57;;;;;;;;;;;22.00;74.90;;;;;;2603052;54;19942;31
2022/03/28 11:51:34;;;;;;;;;;;21.90;75.10;;;;;;2621487;46;19941;31
2022/03/28 11:54:12;;;;;;;;;;;21.90;74.00;;;;;;2620990;46;20698;31
2022/03/28 11:59:51;;;;;;;;;;;22.00;76.10;;;;;;2720174;39;20405;31
2022/03/28 12:02:32;;;;;;;;;;;21.90;75.20;;;;;;2602798;54;20505;31
2022/03/28 12:05:12;;;;;;;;;;;21.90;74.90;;;;;;2621642;46;20820;31
2022/03/28 12:07:52;;;;;;;;;;;21.90;74.30;;;;;;2602801;54;19938;31
2022/03/28 12:10:29;;;;;;;;;;;21.80;74.50;;;;;;2619782;47;19949;31
2022/03/28 12:13:07;;;;;;;;;;;21.80;75.20;;;;;;2602954;54;19965;31
2022/03/28 12:15:56;;;;;;;;;;;21.80;75.40;;;;;;2603456;54;19941;31
2022/03/28 12:18:34;;;;;;;;;;;21.70;75.90;;;;;;2622070;46;20865;31
2022/03/28 12:21:09;;;;;;;;;;;21.70;75.00;;;;;;2603494;54;20795;31
2022/03/28 12:23:46;;;;;;;;;;;21.70;75.70;;;;;;2603706;54;20827;31
2022/03/28 12:26:30;;;;;;;;;;;21.70;74.20;;;;;;2603364;54;19941;31
2022/03/28 12:29:16;;;;;;;;;;;21.60;75.40;;;;;;2603455;54;20724;31
2022/03/28 12:31:53;;;;;;;;;;;21.60;75.10;;;;;;2603366;54;19935;31
2022/03/28 12:34:55;;;;;;;;;;;21.50;74.60;;;;;;2720641;39;20448;31
2022/03/28 12:37:35;;;;;;;;;;;21.40;75.00;;;;;;2603511;54;19940;31
2022/03/28 12:42:44;;;;;;;;;;;21.30;74.00;;;;;;2621321;46;19950;31
2022/03/28 12:45:21;;;;;;;;;;;21.30;74.40;;;;;;2620820;46;19937;31
2022/03/28 12:48:08;;;;;;;;;;;21.20;73.50;;;;;;2603315;54;19938;31
2022/03/28 12:51:00;;;;;;;;;;;21.20;74.10;;;;;;2622061;46;20788;31
2022/03/28 12:53:36;;;;;;;;;;;21.20;73.70;;;;;;2603534;54;20832;31
2022/03/28 12:56:17;;;;;;;;;;;21.10;74.40;;;;;;2603726;54;20829;31
2022/03/28 12:58:54;;;;;;;;;;;21.10;73.90;;;;;;2603644;54;20796;31
2022/03/28 13:01:31;;;;;;;;;;;21.10;74.10;;;;;;2621927;46;19941;31
2022/03/28 13:04:16;;;;;;;;;;;21.10;72.60;;;;;;2603678;54;19934;31
2022/03/28 13:06:53;;;;;;;;;;;21.00;73.00;;;;;;2621881;46;19938;31
2022/03/28 13:09:30;;;;;;;;;;;21.00;74.00;;;;;;2603680;54;20037;31
2022/03/28 13:12:20;;;;;;;;;;;21.00;73.90;;;;;;2602862;54;20795;31
2022/03/28 13:17:48;;;;;;;;;;;20.90;74.10;;;;;;2701783;39;20464;31
2022/03/28 13:23:23;;;;;;;;;;;20.80;73.10;;;;;;2619417;46;20045;31
2022/03/28 13:26:03;;;;;;;;;;;20.90;72.80;;;;;;2620644;46;19938;31
2022/03/28 13:28:43;;;;;;;;;;;20.80;72.40;;;;;;2602714;54;19934;31
2022/03/28 13:31:19;;;;;;;;;;;20.70;72.90;;;;;;2621107;46;19935;31
2022/03/28 13:33:56;;;;;;;;;;;20.70;71.80;;;;;;2603290;54;20042;31
2022/03/28 13:36:31;;;;;;;;;;;20.70;71.60;;;;;;2603390;54;20899;31
2022/03/28 13:39:04;;;;;;;;;;;20.70;71.70;;;;;;2621777;46;22322;31
2022/03/28 13:41:47;;;;;;;;;;;20.60;72.70;;;;;;2603292;54;20771;31
2022/03/28 13:44:39;;;;;;;;;;;20.60;72.60;;;;;;2621862;46;19962;31
2022/03/28 13:47:26;;;;;;;;;;;20.60;72.90;;;;;;2603608;54;20772;31
2022/03/28 13:50:14;;;;;;;;;;;20.60;73.00;;;;;;2621323;46;20797;31
2022/03/28 13:53:14;;;;;;;;;;;20.60;74.10;;;;;;2603357;54;20740;31
2022/03/28 13:55:49;;;;;;;;;;;20.60;74.00;;;;;;2621962;46;19969;31
2022/03/28 13:58:34;;;;;;;;;;;20.50;74.00;;;;;;2621736;46;19961;31
2022/03/28 14:01:15;;;;;;;;;;;20.50;74.50;;;;;;2602504;54;19946;31
2022/03/28 14:04:01;;;;;;;;;;;20.50;75.20;;;;;;2602643;54;19945;31
2022/03/28 14:06:39;;;;;;;;;;;20.40;74.10;;;;;;2602644;54;19949;31
2022/03/28 14:09:19;;;;;;;;;;;20.40;75.10;;;;;;2620948;46;19949;31
2022/03/28 14:12:01;;;;;;;;;;;20.40;75.80;;;;;;2612579;46;19942;31
2022/03/28 14:14:39;;;;;;;;;;;20.40;75.20;;;;;;2602446;54;20020;31
2022/03/28 14:17:17;;;;;;;;;;;20.30;75.80;;;;;;2603179;54;19989;31
2022/03/28 14:19:55;;;;;;;;;;;20.30;75.90;;;;;;2622053;46;20623;31
2022/03/28 14:22:36;;;;;;;;;;;20.30;75.60;;;;;;2702047;39;22273;31
2022/03/28 14:25:14;;;;;;;;;;;20.30;76.10;;;;;;2602530;54;20708;31
2022/03/28 14:27:58;;;;;;;;;;;20.30;76.10;;;;;;2621900;46;19961;31
2022/03/28 14:30:33;;;;;;;;;;;20.30;76.20;;;;;;2603179;54;20042;31
2022/03/28 14:33:09;;;;;;;;;;;20.30;76.70;;;;;;2603361;54;20781;31
2022/03/28 14:35:44;;;;;;;;;;;20.20;76.60;;;;;;2701661;39;20527;31
2022/03/28 14:38:20;;;;;;;;;;;20.20;76.20;;;;;;2603361;54;20733;31
2022/03/28 14:40:55;;;;;;;;;;;20.30;76.40;;;;;;2603257;54;19942;31
2022/03/28 14:43:34;;;;;;;;;;;20.30;76.70;;;;;;2621862;46;19935;31
2022/03/28 14:48:58;;;;;;;;;;;20.20;76.90;;;;;;2621681;46;19938;31
2022/03/28 14:51:34;;;;;;;;;;;20.20;76.90;;;;;;2603173;54;19934;31
2022/03/28 14:54:12;;;;;;;;;;;20.10;78.20;;;;;;2603206;54;20014;31
2022/03/28 14:56:48;;;;;;;;;;;20.10;77.80;;;;;;2719865;39;20456;31
2022/03/28 14:59:30;;;;;;;;;;;20.10;76.30;;;;;;2603177;54;19941;31
2022/03/28 15:02:09;;;;;;;;;;;20.10;76.00;;;;;;2603153;54;20661;31
2022/03/28 15:04:47;;;;;;;;;;;20.00;75.90;;;;;;2621442;46;20706;31
2022/03/28 15:07:23;;;;;;;;;;;20.10;76.60;;;;;;2603301;54;20736;31
2022/03/28 15:10:01;;;;;;;;;;;20.00;76.30;;;;;;2621874;46;19941;31
2022/03/28 15:15:14;;;;;;;;;;;19.90;76.30;;;;;;2621622;46;20748;31
2022/03/28 15:17:51;;;;;;;;;;;19.80;76.60;;;;;;2621376;46;19989;31
2022/03/28 15:20:29;;;;;;;;;;;19.80;76.20;;;;;;2621835;46;19938;31
2022/03/28 15:23:04;;;;;;;;;;;19.80;76.80;;;;;;2603005;54;20791;31
2022/03/28 15:25:45;;;;;;;;;;;19.80;77.00;;;;;;2606550;46;20666;31
2022/03/28 15:28:24;;;;;;;;;;;19.80;76.70;;;;;;2602381;54;20805;31
2022/03/28 15:31:01;;;;;;;;;;;19.70;76.70;;;;;;2701011;39;21499;31
2022/03/28 15:33:39;;;;;;;;;;;19.70;75.90;;;;;;2602321;54;20784;31
2022/03/28 15:36:13;;;;;;;;;;;19.70;76.60;;;;;;2621380;46;20699;31
2022/03/28 15:38:48;;;;;;;;;;;19.70;77.00;;;;;;2603220;54;20767;31
2022/03/28 15:41:23;;;;;;;;;;;19.60;76.40;;;;;;2621868;46;20045;31
2022/03/28 15:43:58;;;;;;;;;;;19.60;77.40;;;;;;2602922;54;20767;31
2022/03/28 15:46:33;;;;;;;;;;;19.50;76.80;;;;;;2603094;54;19934;31
2022/03/28 15:49:11;;;;;;;;;;;19.50;76.90;;;;;;2603037;54;20676;31
2022/03/28 15:51:47;;;;;;;;;;;19.40;76.60;;;;;;2602845;54;20895;31
2022/03/28 15:54:22;;;;;;;;;;;19.40;77.00;;;;;;2621083;46;19946;31
2022/03/28 15:56:58;;;;;;;;;;;19.40;77.10;;;;;;2602887;54;19939;31
2022/03/28 15:59:34;;;;;;;;;;;19.30;75.80;;;;;;2603189;54;20734;31
2022/03/28 16:02:09;;;;;;;;;;;19.20;76.70;;;;;;2621644;46;20658;31
2022/03/28 16:04:49;;;;;;;;;;;19.10;76.70;;;;;;2603112;54;19941;31
2022/03/28 16:07:26;;;;;;;;;;;19.00;77.00;;;;;;2602883;54;20773;31
2022/03/28 16:10:01;;;;;;;;;;;19.00;77.10;;;;;;2602787;54;20760;31
2022/03/28 16:12:37;;;;;;;;;;;18.90;77.90;;;;;;2621539;47;19935;31
2022/03/28 16:15:12;;;;;;;;;;;18.90;77.80;;;;;;2602662;54;20667;31
2022/03/28 16:17:49;;;;;;;;;;;18.80;78.40;;;;;;2621324;47;19934;31
2022/03/28 16:20:27;;;;;;;;;;;18.80;78.60;;;;;;2701546;39;21482;31
2022/03/28 16:23:06;;;;;;;;;;;18.80;78.60;;;;;;2602609;54;19941;31
2022/03/28 16:25:45;;;;;;;;;;;18.70;78.90;;;;;;2602136;54;19934;31
2022/03/28 16:28:20;;;;;;;;;;;18.60;79.50;;;;;;2620675;47;19941;31
2022/03/28 16:30:55;;;;;;;;;;;18.60;79.50;;;;;;2620997;47;19934;31
2022/03/28 16:33:31;;;;;;;;;;;18.50;79.80;;;;;;2602842;54;20776;31
2022/03/28 16:36:15;;;;;;;;;;;18.50;80.00;;;;;;2602828;54;20745;31
2022/03/28 16:38:58;;;;;;;;;;;18.40;80.20;;;;;;2621415;47;19941;31
2022/03/28 16:41:33;;;;;;;;;;;18.30;80.70;;;;;;2602082;54;20735;31
2022/03/28 16:44:11;;;;;;;;;;;18.30;80.80;;;;;;2621293;47;19941;31
2022/03/28 16:46:46;;;;;;;;;;;18.30;80.90;;;;;;2602829;54;19935;31